sensor_id;sensor_type;location;lat;lon;timestamp;pressure;altitude;pressure_sealevel;temperature;humidity
18819;BME280;9537;45.594;9.294;2022-09-25T00:00:12;99475.97;;;15.91;93.46
18819;BME280;9537;45.594;9.294;2022-09-25T00:01:14;99479.25;;;15.93;93.57
18819;BME280;9537;45.594;9.294;2022-09-25T00:02:16;99483.16;;;15.90;93.37
18819;BME280;9537;45.594;9.294;2022-09-25T00:03:18;99483.38;;;15.89;93.47
18819;BME280;9537;45.594;9.294;2022-09-25T00:04:19;99490.56;;;15.88;93.56
18819;BME280;9537;45.594;9.294;2022-09-25T00:05:21;99483.59;;;15.87;93.56
18819;BME280;9537;45.594;9.294;2022-09-25T00:06:24;99484.41;;;15.88;93.76
18819;BME280;9537;45.594;9.294;2022-09-25T00:07:27;99482.78;;;15.87;93.51
18819;BME280;9537;45.594;9.294;2022-09-25T00:08:28;99477.44;;;15.87;93.55
18819;BME280;9537;45.594;9.294;2022-09-25T00:09:31;99475.22;;;15.84;93.91
18819;BME280;9537;45.594;9.294;2022-09-25T00:10:32;99467.03;;;15.85;93.68
18819;BME280;9537;45.594;9.294;2022-09-25T00:11:34;99470.28;;;15.87;93.84
18819;BME280;9537;45.594;9.294;2022-09-25T00:12:39;99469.69;;;15.85;93.63
18819;BME280;9537;45.594;9.294;2022-09-25T00:13:42;99470.69;;;15.84;93.49
18819;BME280;9537;45.594;9.294;2022-09-25T00:14:48;99467.03;;;15.85;93.46
18819;BME280;9537;45.594;9.294;2022-09-25T00:15:51;99467.59;;;15.87;93.29
18819;BME280;9537;45.594;9.294;2022-09-25T00:16:53;99467.59;;;15.87;93.41
18819;BME280;9537;45.594;9.294;2022-09-25T00:17:54;99466.78;;;15.87;93.44
18819;BME280;9537;45.594;9.294;2022-09-25T00:18:57;99465.19;;;15.86;93.31
18819;BME280;9537;45.594;9.294;2022-09-25T00:20:18;99466.78;;;15.87;93.15
18819;BME280;9537;45.594;9.294;2022-09-25T00:21:21;99463.53;;;15.85;93.40
18819;BME280;9537;45.594;9.294;2022-09-25T00:22:23;99465.38;;;15.84;93.70
18819;BME280;9537;45.594;9.294;2022-09-25T00:23:25;99462.72;;;15.84;93.55
18819;BME280;9537;45.594;9.294;2022-09-25T00:24:26;99467.22;;;15.84;93.73
18819;BME280;9537;45.594;9.294;2022-09-25T00:25:28;99456.75;;;15.82;93.81
18819;BME280;9537;45.594;9.294;2022-09-25T00:26:31;99458.63;;;15.82;93.75
18819;BME280;9537;45.594;9.294;2022-09-25T00:27:34;99454.94;;;15.83;93.85
18819;BME280;9537;45.594;9.294;2022-09-25T00:28:38;99455.75;;;15.83;93.89
18819;BME280;9537;45.594;9.294;2022-09-25T00:29:41;99448.59;;;15.84;93.66
18819;BME280;9537;45.594;9.294;2022-09-25T00:30:42;99447.34;;;15.86;93.73
18819;BME280;9537;45.594;9.294;2022-09-25T00:31:44;99442.03;;;15.86;93.74
18819;BME280;9537;45.594;9.294;2022-09-25T00:32:45;99451.63;;;15.87;93.81
18819;BME280;9537;45.594;9.294;2022-09-25T00:33:47;99451.63;;;15.87;93.65
18819;BME280;9537;45.594;9.294;2022-09-25T00:34:48;99448.16;;;15.87;93.60
18819;BME280;9537;45.594;9.294;2022-09-25T00:35:50;99439.13;;;15.88;93.50
18819;BME280;9537;45.594;9.294;2022-09-25T00:36:51;99442.41;;;15.90;93.45
18819;BME280;9537;45.594;9.294;2022-09-25T00:37:53;99446.31;;;15.87;93.40
18819;BME280;9537;45.594;9.294;2022-09-25T00:38:54;99442.03;;;15.86;93.14
18819;BME280;9537;45.594;9.294;2022-09-25T00:39:58;99435.88;;;15.86;93.60
18819;BME280;9537;45.594;9.294;2022-09-25T00:40:59;99439.13;;;15.88;93.49
18819;BME280;9537;45.594;9.294;2022-09-25T00:42:02;99439.34;;;15.86;93.03
18819;BME280;9537;45.594;9.294;2022-09-25T00:43:05;99440.16;;;15.87;92.76
18819;BME280;9537;45.594;9.294;2022-09-25T00:45:52;99432.41;;;15.85;92.80
18819;BME280;9537;45.594;9.294;2022-09-25T00:46:53;99424.19;;;15.87;92.49
18819;BME280;9537;45.594;9.294;2022-09-25T00:47:57;99426.22;;;15.85;92.73
18819;BME280;9537;45.594;9.294;2022-09-25T00:49:03;99425.22;;;15.86;92.70
18819;BME280;9537;45.594;9.294;2022-09-25T00:50:13;99429.50;;;15.87;92.94
18819;BME280;9537;45.594;9.294;2022-09-25T00:51:20;99419.09;;;15.85;92.57
18819;BME280;9537;45.594;9.294;2022-09-25T00:52:30;99425.22;;;15.86;92.63
18819;BME280;9537;45.594;9.294;2022-09-25T00:53:37;99424.41;;;15.85;92.86
18819;BME280;9537;45.594;9.294;2022-09-25T00:54:43;99429.75;;;15.85;92.62
18819;BME280;9537;45.594;9.294;2022-09-25T00:55:46;99418.25;;;15.85;92.73
18819;BME280;9537;45.594;9.294;2022-09-25T00:56:49;99427.06;;;15.85;92.71
18819;BME280;9537;45.594;9.294;2022-09-25T00:57:55;99424.63;;;15.84;92.81
18819;BME280;9537;45.594;9.294;2022-09-25T00:58:57;99424.00;;;15.82;93.04
18819;BME280;9537;45.594;9.294;2022-09-25T01:00:04;99416.81;;;15.82;93.26
18819;BME280;9537;45.594;9.294;2022-09-25T01:01:08;99422.38;;;15.81;93.22
18819;BME280;9537;45.594;9.294;2022-09-25T01:02:15;99421.34;;;15.82;93.17
18819;BME280;9537;45.594;9.294;2022-09-25T01:03:18;99410.91;;;15.80;93.76
18819;BME280;9537;45.594;9.294;2022-09-25T01:04:21;99414.16;;;15.82;93.81
18819;BME280;9537;45.594;9.294;2022-09-25T01:05:25;99409.88;;;15.81;93.61
18819;BME280;9537;45.594;9.294;2022-09-25T01:06:29;99404.34;;;15.83;93.75
18819;BME280;9537;45.594;9.294;2022-09-25T01:07:33;99400.84;;;15.82;93.82
18819;BME280;9537;45.594;9.294;2022-09-25T01:08:38;99398.19;;;15.82;93.90
18819;BME280;9537;45.594;9.294;2022-09-25T01:09:40;99404.78;;;15.80;93.99
18819;BME280;9537;45.594;9.294;2022-09-25T01:10:42;99401.06;;;15.81;94.03
18819;BME280;9537;45.594;9.294;2022-09-25T01:11:43;99401.28;;;15.79;94.02
18819;BME280;9537;45.594;9.294;2022-09-25T01:12:47;99398.59;;;15.79;94.01
18819;BME280;9537;45.594;9.294;2022-09-25T01:13:49;99395.75;;;15.81;93.98
18819;BME280;9537;45.594;9.294;2022-09-25T01:14:54;99401.69;;;15.83;93.73
18819;BME280;9537;45.594;9.294;2022-09-25T01:15:59;99396.38;;;15.83;93.04
18819;BME280;9537;45.594;9.294;2022-09-25T01:17:15;99391.47;;;15.80;93.16
18819;BME280;9537;45.594;9.294;2022-09-25T01:18:28;99394.13;;;15.80;93.13
18819;BME280;9537;45.594;9.294;2022-09-25T01:19:45;99394.94;;;15.80;93.07
18819;BME280;9537;45.594;9.294;2022-09-25T01:21:13;99392.47;;;15.79;93.33
18819;BME280;9537;45.594;9.294;2022-09-25T01:22:22;99396.78;;;15.80;93.27
18819;BME280;9537;45.594;9.294;2022-09-25T01:23:38;99389.81;;;15.79;93.40
18819;BME280;9537;45.594;9.294;2022-09-25T01:24:54;99392.47;;;15.79;93.08
18819;BME280;9537;45.594;9.294;2022-09-25T01:26:19;99402.94;;;15.80;93.17
18819;BME280;9537;45.594;9.294;2022-09-25T01:27:34;99393.09;;;15.81;93.01
18819;BME280;9537;45.594;9.294;2022-09-25T01:28:52;99394.13;;;15.80;92.68
18819;BME280;9537;45.594;9.294;2022-09-25T01:30:09;99399.44;;;15.80;92.82
18819;BME280;9537;45.594;9.294;2022-09-25T01:31:17;99401.69;;;15.76;93.40
18819;BME280;9537;45.594;9.294;2022-09-25T01:32:27;99400.69;;;15.77;93.00
18819;BME280;9537;45.594;9.294;2022-09-25T01:33:33;99398.22;;;15.75;93.21
18819;BME280;9537;45.594;9.294;2022-09-25T01:34:39;99396.59;;;15.74;93.61
18819;BME280;9537;45.594;9.294;2022-09-25T01:35:46;99387.38;;;15.70;93.41
18819;BME280;9537;45.594;9.294;2022-09-25T01:36:54;99389.63;;;15.73;93.07
18819;BME280;9537;45.594;9.294;2022-09-25T01:38:01;99387.81;;;15.74;93.29
18819;BME280;9537;45.594;9.294;2022-09-25T01:39:09;99387.56;;;15.75;93.04
18819;BME280;9537;45.594;9.294;2022-09-25T01:40:16;99382.25;;;15.75;92.95
18819;BME280;9537;45.594;9.294;2022-09-25T01:41:24;99383.88;;;15.76;92.63
18819;BME280;9537;45.594;9.294;2022-09-25T01:42:29;99383.84;;;15.83;92.29
18819;BME280;9537;45.594;9.294;2022-09-25T01:43:35;99383.84;;;15.83;91.86
18819;BME280;9537;45.594;9.294;2022-09-25T01:44:43;99380.81;;;15.80;92.06
18819;BME280;9537;45.594;9.294;2022-09-25T01:45:50;99384.28;;;15.80;92.13
18819;BME280;9537;45.594;9.294;2022-09-25T01:46:53;99371.78;;;15.81;92.15
18819;BME280;9537;45.594;9.294;2022-09-25T01:47:57;99375.50;;;15.80;92.40
18819;BME280;9537;45.594;9.294;2022-09-25T01:49:05;99369.56;;;15.77;91.95
18819;BME280;9537;45.594;9.294;2022-09-25T01:50:13;99373.84;;;15.79;92.32
18819;BME280;9537;45.594;9.294;2022-09-25T01:51:18;99372.22;;;15.77;92.28
18819;BME280;9537;45.594;9.294;2022-09-25T01:52:24;99358.91;;;15.77;92.57
18819;BME280;9537;45.594;9.294;2022-09-25T01:53:32;99367.91;;;15.76;92.63
18819;BME280;9537;45.594;9.294;2022-09-25T01:54:40;99364.22;;;15.77;92.77
18819;BME280;9537;45.594;9.294;2022-09-25T01:55:46;99362.38;;;15.78;92.59
18819;BME280;9537;45.594;9.294;2022-09-25T01:56:53;99360.75;;;15.77;92.53
18819;BME280;9537;45.594;9.294;2022-09-25T01:57:59;99354.59;;;15.76;92.47
18819;BME280;9537;45.594;9.294;2022-09-25T01:59:07;99359.91;;;15.76;92.81
18819;BME280;9537;45.594;9.294;2022-09-25T02:00:14;99359.72;;;15.78;92.65
18819;BME280;9537;45.594;9.294;2022-09-25T02:01:21;99355.44;;;15.77;92.75
18819;BME280;9537;45.594;9.294;2022-09-25T02:02:26;99354.38;;;15.78;92.59
18819;BME280;9537;45.594;9.294;2022-09-25T02:03:35;99351.72;;;15.78;92.58
18819;BME280;9537;45.594;9.294;2022-09-25T02:04:39;99356.44;;;15.76;92.79
18819;BME280;9537;45.594;9.294;2022-09-25T02:05:45;99357.25;;;15.76;92.57
18819;BME280;9537;45.594;9.294;2022-09-25T02:06:50;99358.91;;;15.77;92.67
18819;BME280;9537;45.594;9.294;2022-09-25T02:07:55;99356.22;;;15.77;93.08
18819;BME280;9537;45.594;9.294;2022-09-25T02:08:59;99352.53;;;15.79;93.03
18819;BME280;9537;45.594;9.294;2022-09-25T02:10:07;99352.53;;;15.79;92.85
18819;BME280;9537;45.594;9.294;2022-09-25T02:11:12;99343.13;;;15.76;92.66
18819;BME280;9537;45.594;9.294;2022-09-25T02:12:18;99345.59;;;15.77;92.84
18819;BME280;9537;45.594;9.294;2022-09-25T02:13:22;99348.25;;;15.77;92.64
18819;BME280;9537;45.594;9.294;2022-09-25T02:14:32;99345.59;;;15.77;92.54
18819;BME280;9537;45.594;9.294;2022-09-25T02:15:37;99344.78;;;15.77;92.35
18819;BME280;9537;45.594;9.294;2022-09-25T02:16:41;99343.13;;;15.76;92.39
18819;BME280;9537;45.594;9.294;2022-09-25T02:17:47;99342.69;;;15.79;92.53
18819;BME280;9537;45.594;9.294;2022-09-25T02:19:10;99345.34;;;15.79;92.36
18819;BME280;9537;45.594;9.294;2022-09-25T02:20:32;99346.19;;;15.80;92.35
18819;BME280;9537;45.594;9.294;2022-09-25T02:21:41;99348.84;;;15.80;92.03
18819;BME280;9537;45.594;9.294;2022-09-25T02:22:45;99340.25;;;15.77;92.24
18819;BME280;9537;45.594;9.294;2022-09-25T02:23:52;99340.47;;;15.76;91.93
18819;BME280;9537;45.594;9.294;2022-09-25T02:24:56;99338.59;;;15.76;91.91
18819;BME280;9537;45.594;9.294;2022-09-25T02:26:04;99345.19;;;15.74;92.17
18819;BME280;9537;45.594;9.294;2022-09-25T02:27:05;99342.53;;;15.74;92.39
18819;BME280;9537;45.594;9.294;2022-09-25T02:28:07;99339.88;;;15.74;92.27
18819;BME280;9537;45.594;9.294;2022-09-25T02:29:08;99343.34;;;15.74;92.29
18819;BME280;9537;45.594;9.294;2022-09-25T02:30:11;99338.03;;;15.74;92.06
18819;BME280;9537;45.594;9.294;2022-09-25T02:31:14;99336.38;;;15.73;92.15
18819;BME280;9537;45.594;9.294;2022-09-25T02:32:19;99329.22;;;15.74;92.26
18819;BME280;9537;45.594;9.294;2022-09-25T02:33:22;99331.91;;;15.74;92.08
18819;BME280;9537;45.594;9.294;2022-09-25T02:34:26;99335.13;;;15.76;91.92
18819;BME280;9537;45.594;9.294;2022-09-25T02:35:27;99338.84;;;15.75;92.01
18819;BME280;9537;45.594;9.294;2022-09-25T02:36:29;99331.91;;;15.74;91.87
18819;BME280;9537;45.594;9.294;2022-09-25T02:37:31;99331.91;;;15.74;91.44
18819;BME280;9537;45.594;9.294;2022-09-25T02:38:33;99336.19;;;15.75;91.50
18819;BME280;9537;45.594;9.294;2022-09-25T02:39:36;99336.97;;;15.75;91.07
18819;BME280;9537;45.594;9.294;2022-09-25T02:40:43;99329.81;;;15.76;91.09
18819;BME280;9537;45.594;9.294;2022-09-25T02:42:02;99327.97;;;15.76;91.22
18819;BME280;9537;45.594;9.294;2022-09-25T02:43:21;99334.13;;;15.77;90.94
18819;BME280;9537;45.594;9.294;2022-09-25T02:44:32;99321.81;;;15.76;90.73
18819;BME280;9537;45.594;9.294;2022-09-25T02:45:42;99324.72;;;15.74;90.52
18819;BME280;9537;45.594;9.294;2022-09-25T02:46:58;99325.28;;;15.76;90.49
18819;BME280;9537;45.594;9.294;2022-09-25T02:48:07;99327.16;;;15.76;90.57
18819;BME280;9537;45.594;9.294;2022-09-25T02:49:20;99323.47;;;15.77;90.52
18819;BME280;9537;45.594;9.294;2022-09-25T02:50:26;99317.31;;;15.76;90.45
18819;BME280;9537;45.594;9.294;2022-09-25T02:51:34;99318.16;;;15.77;90.55
18819;BME280;9537;45.594;9.294;2022-09-25T02:52:42;99320.81;;;15.77;90.69
18819;BME280;9537;45.594;9.294;2022-09-25T02:53:51;99323.47;;;15.77;90.69
18819;BME280;9537;45.594;9.294;2022-09-25T02:54:57;99310.16;;;15.77;90.51
18819;BME280;9537;45.594;9.294;2022-09-25T02:56:07;99315.69;;;15.75;90.70
18819;BME280;9537;45.594;9.294;2022-09-25T02:57:15;99311.16;;;15.76;90.60
18819;BME280;9537;45.594;9.294;2022-09-25T02:58:25;99307.69;;;15.75;90.16
18819;BME280;9537;45.594;9.294;2022-09-25T02:59:31;99302.97;;;15.77;90.88
18819;BME280;9537;45.594;9.294;2022-09-25T03:00:34;99309.31;;;15.76;90.50
18819;BME280;9537;45.594;9.294;2022-09-25T03:01:39;99310.16;;;15.77;90.48
18819;BME280;9537;45.594;9.294;2022-09-25T03:02:44;99311.78;;;15.78;90.61
18819;BME280;9537;45.594;9.294;2022-09-25T03:03:48;99307.50;;;15.77;90.60
18819;BME280;9537;45.594;9.294;2022-09-25T03:04:54;99302.16;;;15.77;90.76
18819;BME280;9537;45.594;9.294;2022-09-25T03:05:56;99299.72;;;15.75;90.96
18819;BME280;9537;45.594;9.294;2022-09-25T03:06:58;99295.19;;;15.76;90.85
18819;BME280;9537;45.594;9.294;2022-09-25T03:08:01;99304.84;;;15.77;90.47
18819;BME280;9537;45.594;9.294;2022-09-25T03:09:21;99297.84;;;15.76;90.72
18819;BME280;9537;45.594;9.294;2022-09-25T03:10:25;99296.25;;;15.75;90.87
18819;BME280;9537;45.594;9.294;2022-09-25T03:11:27;99298.66;;;15.76;91.11
18819;BME280;9537;45.594;9.294;2022-09-25T03:12:34;99301.56;;;15.75;91.20
18819;BME280;9537;45.594;9.294;2022-09-25T03:13:36;99304.22;;;15.75;91.12
18819;BME280;9537;45.594;9.294;2022-09-25T03:14:38;99307.31;;;15.72;91.42
18819;BME280;9537;45.594;9.294;2022-09-25T03:15:40;99306.50;;;15.71;91.71
18819;BME280;9537;45.594;9.294;2022-09-25T03:16:46;99310.41;;;15.69;91.40
18819;BME280;9537;45.594;9.294;2022-09-25T03:17:49;99305.69;;;15.71;91.59
18819;BME280;9537;45.594;9.294;2022-09-25T03:18:51;99316.53;;;15.69;91.56
18819;BME280;9537;45.594;9.294;2022-09-25T03:19:52;99310.41;;;15.69;91.44
18819;BME280;9537;45.594;9.294;2022-09-25T03:20:54;99305.25;;;15.67;91.73
18819;BME280;9537;45.594;9.294;2022-09-25T03:21:55;99305.69;;;15.64;91.64
18819;BME280;9537;45.594;9.294;2022-09-25T03:22:58;99306.50;;;15.65;91.88
18819;BME280;9537;45.594;9.294;2022-09-25T03:23:59;99306.50;;;15.65;91.86
18819;BME280;9537;45.594;9.294;2022-09-25T03:25:01;99302.41;;;15.62;91.99
18819;BME280;9537;45.594;9.294;2022-09-25T03:26:02;99308.56;;;15.63;92.21
18819;BME280;9537;45.594;9.294;2022-09-25T03:27:05;99306.72;;;15.63;92.41
18819;BME280;9537;45.594;9.294;2022-09-25T03:28:08;99309.38;;;15.63;92.17
18819;BME280;9537;45.594;9.294;2022-09-25T03:29:11;99309.38;;;15.63;92.62
18819;BME280;9537;45.594;9.294;2022-09-25T03:30:12;99311.00;;;15.64;92.42
18819;BME280;9537;45.594;9.294;2022-09-25T03:31:14;99311.00;;;15.64;92.23
18819;BME280;9537;45.594;9.294;2022-09-25T03:32:16;99311.00;;;15.64;92.18
18819;BME280;9537;45.594;9.294;2022-09-25T03:33:21;99310.19;;;15.64;92.48
18819;BME280;9537;45.594;9.294;2022-09-25T03:34:22;99308.34;;;15.64;92.36
18819;BME280;9537;45.594;9.294;2022-09-25T03:35:24;99318.00;;;15.65;92.45
18819;BME280;9537;45.594;9.294;2022-09-25T03:36:27;99310.59;;;15.67;92.15
18819;BME280;9537;45.594;9.294;2022-09-25T03:37:30;99310.59;;;15.67;91.93
18819;BME280;9537;45.594;9.294;2022-09-25T03:38:32;99306.50;;;15.65;92.13
18819;BME280;9537;45.594;9.294;2022-09-25T03:39:34;99299.34;;;15.65;92.29
18819;BME280;9537;45.594;9.294;2022-09-25T03:40:34;99298.72;;;15.70;91.92
18819;BME280;9537;45.594;9.294;2022-09-25T03:41:36;99302.19;;;15.70;91.57
18819;BME280;9537;45.594;9.294;2022-09-25T03:42:37;99301.56;;;15.75;90.83
18819;BME280;9537;45.594;9.294;2022-09-25T03:43:41;99295.84;;;15.71;90.85
18819;BME280;9537;45.594;9.294;2022-09-25T03:44:43;99299.53;;;15.70;90.83
18819;BME280;9537;45.594;9.294;2022-09-25T03:45:45;99298.72;;;15.70;90.74
18819;BME280;9537;45.594;9.294;2022-09-25T03:46:45;99298.72;;;15.70;90.93
18819;BME280;9537;45.594;9.294;2022-09-25T03:47:47;99300.38;;;15.71;91.28
18819;BME280;9537;45.594;9.294;2022-09-25T03:48:50;99306.72;;;15.70;90.91
18819;BME280;9537;45.594;9.294;2022-09-25T03:49:53;99293.41;;;15.70;91.13
18819;BME280;9537;45.594;9.294;2022-09-25T03:50:54;99291.53;;;15.70;91.19
18819;BME280;9537;45.594;9.294;2022-09-25T03:51:56;99298.72;;;15.70;91.21
18819;BME280;9537;45.594;9.294;2022-09-25T03:52:57;99302.19;;;15.70;91.11
18819;BME280;9537;45.594;9.294;2022-09-25T03:53:58;99301.63;;;15.68;90.95
18819;BME280;9537;45.594;9.294;2022-09-25T03:54:59;99302.44;;;15.69;91.36
18819;BME280;9537;45.594;9.294;2022-09-25T03:56:04;99300.78;;;15.68;91.24
18819;BME280;9537;45.594;9.294;2022-09-25T03:57:06;99294.59;;;15.67;91.45
18819;BME280;9537;45.594;9.294;2022-09-25T03:58:08;99290.13;;;15.68;91.56
18819;BME280;9537;45.594;9.294;2022-09-25T03:59:10;99298.31;;;15.66;91.52
18819;BME280;9537;45.594;9.294;2022-09-25T04:00:12;99291.94;;;15.67;91.82
18819;BME280;9537;45.594;9.294;2022-09-25T04:01:15;99293.78;;;15.67;91.63
18819;BME280;9537;45.594;9.294;2022-09-25T04:02:19;99291.13;;;15.67;91.78
18819;BME280;9537;45.594;9.294;2022-09-25T04:03:20;99288.69;;;15.65;91.61
18819;BME280;9537;45.594;9.294;2022-09-25T04:04:24;99293.00;;;15.66;91.50
18819;BME280;9537;45.594;9.294;2022-09-25T04:05:25;99290.31;;;15.66;91.44
18819;BME280;9537;45.594;9.294;2022-09-25T04:06:27;99295.84;;;15.65;91.71
18819;BME280;9537;45.594;9.294;2022-09-25T04:07:28;99292.38;;;15.64;91.75
18819;BME280;9537;45.594;9.294;2022-09-25T04:08:32;99295.03;;;15.64;92.02
18819;BME280;9537;45.594;9.294;2022-09-25T04:09:33;99297.94;;;15.63;91.97
18819;BME280;9537;45.594;9.294;2022-09-25T04:10:35;99296.09;;;15.63;91.70
18819;BME280;9537;45.594;9.294;2022-09-25T04:11:38;99296.09;;;15.63;91.84
18819;BME280;9537;45.594;9.294;2022-09-25T04:12:40;99294.03;;;15.65;92.07
18819;BME280;9537;45.594;9.294;2022-09-25T04:13:43;99290.53;;;15.65;92.11
18819;BME280;9537;45.594;9.294;2022-09-25T04:14:46;99294.03;;;15.65;91.91
18819;BME280;9537;45.594;9.294;2022-09-25T04:15:47;99294.84;;;15.66;91.13
18819;BME280;9537;45.594;9.294;2022-09-25T04:16:49;99300.38;;;15.64;90.89
18819;BME280;9537;45.594;9.294;2022-09-25T04:17:51;99293.41;;;15.63;90.88
18819;BME280;9537;45.594;9.294;2022-09-25T04:18:52;99297.94;;;15.63;91.32
18819;BME280;9537;45.594;9.294;2022-09-25T04:19:55;99298.94;;;15.62;91.44
18819;BME280;9537;45.594;9.294;2022-09-25T04:20:56;99298.94;;;15.62;91.58
18819;BME280;9537;45.594;9.294;2022-09-25T04:21:59;99296.50;;;15.60;91.85
18819;BME280;9537;45.594;9.294;2022-09-25T04:23:00;99296.72;;;15.59;91.56
18819;BME280;9537;45.594;9.294;2022-09-25T04:24:02;99299.38;;;15.59;91.65
18819;BME280;9537;45.594;9.294;2022-09-25T04:25:30;99299.16;;;15.60;91.47
18819;BME280;9537;45.594;9.294;2022-09-25T04:26:32;99306.13;;;15.61;91.95
18819;BME280;9537;45.594;9.294;2022-09-25T04:27:33;99302.41;;;15.62;91.60
18819;BME280;9537;45.594;9.294;2022-09-25T04:28:36;99301.41;;;15.63;91.64
18819;BME280;9537;45.594;9.294;2022-09-25T04:29:37;99305.06;;;15.62;91.74
18819;BME280;9537;45.594;9.294;2022-09-25T04:30:40;99309.81;;;15.60;91.46
18819;BME280;9537;45.594;9.294;2022-09-25T04:31:41;99303.94;;;15.51;91.63
18819;BME280;9537;45.594;9.294;2022-09-25T04:32:43;99306.38;;;15.53;91.87
18819;BME280;9537;45.594;9.294;2022-09-25T04:34:03;99310.03;;;15.59;91.60
18819;BME280;9537;45.594;9.294;2022-09-25T04:35:06;99309.00;;;15.60;91.72
18819;BME280;9537;45.594;9.294;2022-09-25T04:36:07;99311.44;;;15.61;91.52
18819;BME280;9537;45.594;9.294;2022-09-25T04:37:09;99308.56;;;15.63;91.68
18819;BME280;9537;45.594;9.294;2022-09-25T04:38:10;99305.91;;;15.63;91.52
18819;BME280;9537;45.594;9.294;2022-09-25T04:39:12;99299.75;;;15.62;91.75
18819;BME280;9537;45.594;9.294;2022-09-25T04:40:19;99295.69;;;15.60;91.57
18819;BME280;9537;45.594;9.294;2022-09-25T04:41:21;99300.78;;;15.61;91.76
18819;BME280;9537;45.594;9.294;2022-09-25T04:42:23;99293.25;;;15.58;91.46
18819;BME280;9537;45.594;9.294;2022-09-25T04:43:26;99297.31;;;15.61;91.45
18819;BME280;9537;45.594;9.294;2022-09-25T04:44:28;99293.84;;;15.60;91.66
18819;BME280;9537;45.594;9.294;2022-09-25T04:45:33;99295.47;;;15.61;91.62
18819;BME280;9537;45.594;9.294;2022-09-25T04:46:34;99293.84;;;15.60;91.35
18819;BME280;9537;45.594;9.294;2022-09-25T04:47:37;99297.31;;;15.61;91.22
18819;BME280;9537;45.594;9.294;2022-09-25T04:48:38;99299.16;;;15.60;91.25
18819;BME280;9537;45.594;9.294;2022-09-25T04:49:41;99296.72;;;15.59;91.33
18819;BME280;9537;45.594;9.294;2022-09-25T04:50:48;99294.66;;;15.61;91.22
18819;BME280;9537;45.594;9.294;2022-09-25T04:51:51;99294.66;;;15.61;91.49
18819;BME280;9537;45.594;9.294;2022-09-25T04:52:53;99295.47;;;15.61;91.46
18819;BME280;9537;45.594;9.294;2022-09-25T04:53:57;99298.13;;;15.61;91.44
18819;BME280;9537;45.594;9.294;2022-09-25T04:54:59;99291.75;;;15.62;91.42
18819;BME280;9537;45.594;9.294;2022-09-25T04:56:02;99289.34;;;15.61;91.17
18819;BME280;9537;45.594;9.294;2022-09-25T04:57:04;99297.09;;;15.62;91.23
18819;BME280;9537;45.594;9.294;2022-09-25T04:58:05;99299.97;;;15.61;91.47
18819;BME280;9537;45.594;9.294;2022-09-25T04:59:08;99302.41;;;15.62;91.57
18819;BME280;9537;45.594;9.294;2022-09-25T05:00:12;99304.06;;;15.63;91.35
18819;BME280;9537;45.594;9.294;2022-09-25T05:01:18;99301.59;;;15.62;91.39
18819;BME280;9537;45.594;9.294;2022-09-25T05:02:25;99301.03;;;15.60;91.29
18819;BME280;9537;45.594;9.294;2022-09-25T05:03:27;99302.03;;;15.59;91.38
18819;BME280;9537;45.594;9.294;2022-09-25T05:04:29;99296.34;;;15.55;91.43
18819;BME280;9537;45.594;9.294;2022-09-25T05:05:31;99304.09;;;15.57;91.54
18819;BME280;9537;45.594;9.294;2022-09-25T05:06:34;99300.63;;;15.56;91.63
18819;BME280;9537;45.594;9.294;2022-09-25T05:07:36;99302.69;;;15.54;92.10
18819;BME280;9537;45.594;9.294;2022-09-25T05:08:38;99294.28;;;15.57;91.93
18819;BME280;9537;45.594;9.294;2022-09-25T05:09:40;99296.94;;;15.57;91.90
18819;BME280;9537;45.594;9.294;2022-09-25T05:10:42;99299.38;;;15.59;92.04
18819;BME280;9537;45.594;9.294;2022-09-25T05:11:45;99288.97;;;15.57;92.17
18819;BME280;9537;45.594;9.294;2022-09-25T05:12:46;99296.94;;;15.57;91.93
18819;BME280;9537;45.594;9.294;2022-09-25T05:13:49;99303.06;;;15.58;92.12
18819;BME280;9537;45.594;9.294;2022-09-25T05:14:51;99296.94;;;15.57;92.14
18819;BME280;9537;45.594;9.294;2022-09-25T05:15:54;99302.25;;;15.57;91.47
18819;BME280;9537;45.594;9.294;2022-09-25T05:16:56;99298.75;;;15.57;91.95
18819;BME280;9537;45.594;9.294;2022-09-25T05:17:59;99299.81;;;15.55;91.77
18819;BME280;9537;45.594;9.294;2022-09-25T05:19:00;99299.00;;;15.55;91.75
18819;BME280;9537;45.594;9.294;2022-09-25T05:20:02;99292.63;;;15.56;91.49
18819;BME280;9537;45.594;9.294;2022-09-25T05:21:04;99293.88;;;15.53;91.64
18819;BME280;9537;45.594;9.294;2022-09-25T05:22:07;99289.38;;;15.54;91.67
18819;BME280;9537;45.594;9.294;2022-09-25T05:23:10;99293.06;;;15.53;91.97
18819;BME280;9537;45.594;9.294;2022-09-25T05:24:12;99287.72;;;15.53;92.04
18819;BME280;9537;45.594;9.294;2022-09-25T05:25:13;99296.34;;;15.55;91.94
18819;BME280;9537;45.594;9.294;2022-09-25T05:26:15;99289.38;;;15.54;92.01
18819;BME280;9537;45.594;9.294;2022-09-25T05:27:17;99286.50;;;15.55;91.92
18819;BME280;9537;45.594;9.294;2022-09-25T05:28:18;99291.81;;;15.55;91.97
18819;BME280;9537;45.594;9.294;2022-09-25T05:29:21;99287.91;;;15.58;92.02
18819;BME280;9537;45.594;9.294;2022-09-25T05:30:23;99290.56;;;15.58;92.46
18819;BME280;9537;45.594;9.294;2022-09-25T05:31:25;99285.88;;;15.53;92.17
18819;BME280;9537;45.594;9.294;2022-09-25T05:32:26;99297.94;;;15.56;92.23
18819;BME280;9537;45.594;9.294;2022-09-25T05:33:28;99294.28;;;15.57;92.03
18819;BME280;9537;45.594;9.294;2022-09-25T05:34:29;99300.41;;;15.58;92.09
18819;BME280;9537;45.594;9.294;2022-09-25T05:35:32;99295.91;;;15.58;91.78
18819;BME280;9537;45.594;9.294;2022-09-25T05:36:33;99289.75;;;15.58;91.60
18819;BME280;9537;45.594;9.294;2022-09-25T05:37:37;99305.72;;;15.58;91.39
18819;BME280;9537;45.594;9.294;2022-09-25T05:38:38;99297.13;;;15.55;91.19
18819;BME280;9537;45.594;9.294;2022-09-25T05:39:41;99300.63;;;15.56;91.35
18819;BME280;9537;45.594;9.294;2022-09-25T05:40:42;99296.09;;;15.57;91.10
18819;BME280;9537;45.594;9.294;2022-09-25T05:41:44;99299.59;;;15.57;91.01
18819;BME280;9537;45.594;9.294;2022-09-25T05:42:45;99283.63;;;15.57;91.41
18819;BME280;9537;45.594;9.294;2022-09-25T05:43:47;99289.75;;;15.58;91.49
18819;BME280;9537;45.594;9.294;2022-09-25T05:44:48;99294.03;;;15.59;91.39
18819;BME280;9537;45.594;9.294;2022-09-25T05:45:54;99291.38;;;15.59;91.55
18819;BME280;9537;45.594;9.294;2022-09-25T05:46:55;99293.03;;;15.60;91.35